• Join FlightAware (Why Join?)
  • Login
  • US Flag 
06:31AM EDT


 

Airport Tracker/Info


-or-


 

Live Flight TrackerFlight Track Log ✈ N589H ✈ 05-Feb-2014 ✈ KCLT - KPIE

Flight Track Log - Related Links

Times and Time Zones

All times are in EST time to prevent confusion due to time zone crossing. See the N589H flight status page for this flight to view local times or setup timezone preferences in your user account.

Time Position Orientation Groundspeed Altitude Reporting Facility
EST Latitude Longitude Course Direction KTS MPH feet Rate Location/Type
05:37AM 35.2672 -80.8208 104° East 216 249 4,600  Level Atlanta Center
05:37AM 35.2603 -80.8008 113° Southeast 210 242 5,000 1,560 Climbing Atlanta Center
05:42AM 35.0097 -80.7903 193° South 190 219 13,300 1,560 Climbing Atlanta Center
05:45AM 34.8711 -80.8328 194° South 213 245 17,300 1,740 Climbing Jacksonville Center
05:46AM 34.5444 -80.9989 180° South  Level Estimated
05:46AM 34.8006 -80.8522 193° South 221 254 19,200  Level Jacksonville Center
05:47AM 34.4603 -81.0219 197° South  Level Estimated
05:48AM 34.3762 -81.0449 193° South  Level Estimated
05:48AM 34.6572 -80.8986 195° South 242 278 22,500  Level Jacksonville Center
05:49AM 34.5764 -80.9258 195° South 242 278 24,400 1,260 Climbing Jacksonville Center
05:50AM 34.5139 -80.9397 190° South 242 278 25,600 1,080 Climbing Jacksonville Center
05:51AM 34.4331 -80.9692 197° South 242 278 26,900 1,200 Climbing Jacksonville Center
05:52AM 34.3519 -80.9911 193° South 247 284 28,300 1,080 Climbing Jacksonville Center
05:54AM 34.2711 -81.0181 195° South 247 284 29,600 1,080 Climbing Jacksonville Center
05:55AM 34.1858 -81.0425 193° South 253 291 31,200 1,080 Climbing Jacksonville Center
05:56AM 34.1069 -81.0667 194° South 253 291 32,000 300 Climbing Jacksonville Center
05:57AM 34.0156 -81.0936 194° South 264 304 32,000  Level Jacksonville Center
05:58AM 33.9178 -81.1208 193° South 287 330 32,000  Level Jacksonville Center
05:59AM 33.8369 -81.1447 194° South 298 343 32,000  Level Jacksonville Center
06:00AM 33.7517 -81.1714 195° South 306 352 32,000  Level Jacksonville Center
06:01AM 33.6747 -81.1956 195° South 311 358 32,000  Level Jacksonville Center
06:02AM 33.5917 -81.2194 193° South 311 358 32,000  Level Jacksonville Center
06:04AM 33.5083 -81.2436 194° South 316 364 32,000  Level Jacksonville Center
06:05AM 33.4086 -81.2728 194° South 316 364 32,000  Level Jacksonville Center
06:06AM 33.2736 -81.3125 194° South 316 364 32,000  Level Jacksonville Center
06:07AM 33.1694 -81.3442 194° South 316 364 32,000  Level Jacksonville Center
06:09AM 33.0842 -81.3678 193° South 316 364 32,000  Level Jacksonville Center
06:10AM 32.9822 -81.3992 194° South 316 364 32,000  Level Jacksonville Center
06:11AM 32.8594 -81.4336 193° South 316 364 32,000  Level Jacksonville Center
06:12AM 32.7722 -81.4597 194° South 316 364 32,000  Level Jacksonville Center
06:13AM 32.7014 -81.4831 195° South 316 364 32,000  Level Jacksonville Center
06:15AM 32.5536 -81.5247 193° South 316 364 32,000  Level Jacksonville Center
06:16AM 32.4517 -81.5558 194° South 321 369 32,000  Level Jacksonville Center
06:17AM 32.3561 -81.5817 193° South 314 361 32,000  Level Jacksonville Center
06:18AM 32.2603 -81.6103 194° South 319 367 32,000  Level Jacksonville Center
06:19AM 32.1644 -81.6361 193° South 319 367 32,000  Level Jacksonville Center
06:20AM 32.0542 -81.6719 195° South 319 367 32,000  Level Jacksonville Center
06:21AM 31.9750 -81.6925 192° South 319 367 32,000  Level Jacksonville Center
06:23AM 31.8731 -81.7231 194° South 319 367 32,000  Level Jacksonville Center
06:24AM 31.7336 -81.7617 193° South 319 367 32,000  Level Jacksonville Center
06:25AM 31.6397 -81.7894 194° South 319 367 32,000  Level Jacksonville Center
06:26AM 31.5461 -81.8150 193° South 319 367 32,000  Level Jacksonville Center
06:27AM 31.4336 -81.8481 194° South 324 373 32,000  Level Jacksonville Center
06:29AM 31.3169 -81.8808 193° South 323 372 32,000  Level Jacksonville Center
06:31AM 31.1461 -81.9314 194° South 318 366 32,000  Level Jacksonville Center
06:33AM 30.9503 -81.9842 193° South 323 372 32,000  Level Jacksonville Center
06:34AM 30.8419 -82.0119 192° South 328 377 32,000  Level Jacksonville Center
06:36AM 30.7587 -82.0226 192° South  Level FlightAware Approximate
06:36AM 30.6814 -82.0544 192° South 333 383 32,000  Level Jacksonville Center
06:37AM 30.5917 -82.0744 191° South 333 383 32,000  Level Jacksonville Center
06:38AM 30.5186 -82.0872 189° South 333 383 32,000 -60 Level Jacksonville Center
06:42AM 30.1183 -82.1817 180° South 333 383 31,700 -240 Descending Jacksonville Center
06:43AM 30.0244 -82.2042 192° South 339 390 30,800 -780 Descending Jacksonville Center
06:44AM 29.9286 -82.2286 192° South 344 396 30,000 -960 Descending Jacksonville Center
06:45AM 29.8119 -82.2558 191° South 356 410 28,800 -1,140 Descending Jacksonville Center
06:46AM 29.7139 -82.2756 190° South 356 410 27,800 -1,020 Descending Jacksonville Center
06:47AM 29.9544 -82.2178 194° South  Level FlightAware Approximate
06:48AM 29.8876 -82.2333 180° South  Level FlightAware Approximate
06:48AM 29.5969 -82.3025 191° South 356 410 26,600  Level Jacksonville Center
06:50AM 29.3428 -82.3614 191° South 356 410 23,400 -1,500 Descending Jacksonville Center
06:51AM 29.2550 -82.3833 192° South 346 398 21,300 -2,100 Descending Jacksonville Center
06:53AM 29.1319 -82.4100 191° South 334 384 18,500 -1,920 Descending Jacksonville Center
06:54AM 29.0464 -82.4319 193° South 324 373 16,700 -1,800 Descending Jacksonville Center
06:56AM 28.8500 -82.4833 193° South 303 349 12,600 -1,680 Descending Tampa TRACON
06:57AM 28.7667 -82.5000 190° South 283 326 11,200 -840 Descending Tampa TRACON
06:58AM 28.7000 -82.5167 192° South 261 300 11,000 -300 Descending Tampa TRACON
06:59AM 28.6333 -82.5333 192° South 258 297 10,700 -900 Descending Tampa TRACON
07:00AM 28.5500 -82.5667 199° South 269 310 9,300 -1,500 Descending Tampa TRACON
07:01AM 28.4833 -82.6000 204° Southwest 269 310 7,700 -1,560 Descending Tampa TRACON
07:02AM 28.4167 -82.6167 192° South 263 303 6,200 -1,500 Descending Tampa TRACON
07:03AM 28.3500 -82.6333 192° South 250 288 4,800 -1,380 Descending Tampa TRACON
07:04AM 28.2833 -82.6667 204° Southwest 235 270 3,500 -1,140 Descending Tampa TRACON
07:05AM 28.2167 -82.6833 192° South 244 281 2,600 -480 Descending Tampa TRACON
07:06AM 28.1500 -82.7000 192° South 232 267 2,600 -60 Level Tampa TRACON
07:07AM 28.1000 -82.7167 196° South 216 249 2,500 -120 Descending Tampa TRACON
07:08AM 28.0500 -82.7167 180° South 177 204 2,400 -480 Descending Tampa TRACON
07:09AM 28.0000 -82.7000 164° South 136 157 1,600 -720 Descending Tampa TRACON
07:10AM 27.9667 -82.7000 180° South 104 120 1,000 -600 Descending Tampa TRACON
07:11AM 27.9500 -82.7000 180° South 103 119 500 -540 Descending Tampa TRACON